createdAt,value
2023-03-14T00:02:08.026Z,95201.16
2023-03-14T00:04:34.961Z,95205.63
2023-03-14T00:07:01.942Z,95198.34
2023-03-14T00:09:30.748Z,95136.91
2023-03-14T00:11:58.351Z,95194.72
2023-03-14T00:14:25.273Z,95173.34
2023-03-14T00:16:52.329Z,95170.53
2023-03-14T00:19:19.241Z,95180.50
2023-03-14T00:21:46.108Z,95171.97
2023-03-14T00:24:13.180Z,95172.59
2023-03-14T00:26:40.091Z,95172.59
2023-03-14T00:29:08.306Z,95153.03
2023-03-14T00:31:37.025Z,95163.44
2023-03-14T00:34:04.070Z,95144.91
2023-03-14T00:36:32.795Z,95159.09
2023-03-14T00:38:59.795Z,95150.78
2023-03-14T00:41:26.754Z,95146.94
2023-03-14T00:43:53.639Z,95146.09
2023-03-14T00:46:20.741Z,95145.09
2023-03-14T00:48:48.139Z,95101.31
2023-03-14T00:51:16.130Z,95133.66
2023-03-14T00:53:45.023Z,95157.19
2023-03-14T00:56:14.148Z,95071.53
2023-03-14T00:58:41.436Z,95156.34
2023-03-14T01:01:18.665Z,95127.28
2023-03-14T01:03:46.823Z,95128.09
2023-03-14T01:06:19.713Z,95138.19
2023-03-14T01:08:47.876Z,95123.13
2023-03-14T01:11:24.490Z,95142.00
2023-03-14T01:13:52.151Z,95126.75
2023-03-14T01:16:20.762Z,95133.44
2023-03-14T01:18:48.345Z,95128.81
2023-03-14T01:21:26.372Z,95099.50
2023-03-14T01:23:54.876Z,95105.56
2023-03-14T01:26:24.141Z,95108.28
2023-03-14T01:28:53.509Z,95118.81
2023-03-14T01:31:20.397Z,95124.25
2023-03-14T01:33:47.861Z,95118.09
2023-03-14T01:36:15.447Z,95112.03
2023-03-14T01:38:44.056Z,95112.41
2023-03-14T01:41:16.973Z,95108.13
2023-03-14T01:43:45.374Z,95093.03
2023-03-14T01:46:23.389Z,95109.53
2023-03-14T01:48:59.978Z,95086.38
2023-03-14T01:51:29.823Z,95097.75
2023-03-14T01:54:07.800Z,95083.09
2023-03-14T01:56:36.948Z,95089.81
2023-03-14T01:59:07.393Z,95089.00
2023-03-14T02:01:35.744Z,95086.31
2023-03-14T02:04:06.554Z,95095.47
2023-03-14T02:06:45.806Z,95097.63
2023-03-14T02:09:13.922Z,95085.44
2023-03-14T02:11:40.978Z,95082.00
2023-03-14T02:14:38.846Z,95027.06
2023-03-14T02:17:39.138Z,95074.66
2023-03-14T02:20:26.334Z,95085.22
2023-03-14T02:22:56.779Z,95053.31
2023-03-14T02:25:46.668Z,95081.38
2023-03-14T02:28:14.405Z,95083.19
2023-03-14T02:30:43.467Z,95082.91
2023-03-14T02:33:20.160Z,95076.84
2023-03-14T02:36:05.362Z,95082.09
2023-03-14T02:38:37.939Z,95083.09
2023-03-14T02:41:06.653Z,95083.69
2023-03-14T02:43:39.474Z,95079.59
2023-03-14T02:46:17.700Z,95094.03
2023-03-14T02:48:55.794Z,95099.06
2023-03-14T02:51:24.956Z,95078.72
2023-03-14T02:53:51.949Z,95097.44
2023-03-14T02:56:20.116Z,95078.53
2023-03-14T02:58:47.521Z,95089.94
2023-03-14T03:01:36.868Z,95099.03
2023-03-14T03:04:04.174Z,95091.94
2023-03-14T03:06:31.027Z,95100.66
2023-03-14T03:08:58.092Z,95089.41
2023-03-14T03:11:25.022Z,95086.38
2023-03-14T03:13:52.181Z,95074.31
2023-03-14T03:16:19.527Z,95037.97
2023-03-14T03:18:46.605Z,95096.31
2023-03-14T03:21:13.577Z,95067.44
2023-03-14T03:23:43.650Z,95096.50
2023-03-14T03:26:11.798Z,95088.59
2023-03-14T03:28:38.673Z,95061.50
2023-03-14T03:31:11.444Z,95095.06
2023-03-14T03:33:40.084Z,95080.84
2023-03-14T03:36:09.455Z,95085.56
2023-03-14T03:38:39.323Z,95092.00
2023-03-14T03:41:08.116Z,95090.19
2023-03-14T03:43:35.726Z,95086.09
2023-03-14T03:46:06.155Z,95086.41
2023-03-14T03:48:33.984Z,95043.00
2023-03-14T03:51:04.187Z,95085.47
2023-03-14T03:53:33.987Z,95094.84
2023-03-14T03:56:05.452Z,95099.28
2023-03-14T03:58:34.182Z,95111.25
2023-03-14T04:01:01.194Z,95104.38
2023-03-14T04:03:30.188Z,95105.38
2023-03-14T04:06:06.750Z,95101.94
2023-03-14T04:08:36.219Z,95099.66
2023-03-14T04:11:03.909Z,95094.97
2023-03-14T04:13:54.070Z,95096.78
2023-03-14T04:16:26.417Z,95089.72
2023-03-14T04:19:00.519Z,95093.88
2023-03-14T04:21:27.785Z,95084.56
2023-03-14T04:23:57.484Z,95082.56
2023-03-14T04:26:26.584Z,95062.66
2023-03-14T04:28:54.017Z,95055.50
2023-03-14T04:31:22.818Z,95074.03
2023-03-14T04:33:50.903Z,95026.38
2023-03-14T04:36:23.992Z,95074.44
2023-03-14T04:38:51.152Z,95046.16
2023-03-14T04:41:21.145Z,95061.28
2023-03-14T04:43:48.520Z,95049.16
2023-03-14T04:46:15.694Z,95043.81
2023-03-14T04:48:43.714Z,95038.09
2023-03-14T04:51:10.875Z,95055.22
2023-03-14T04:53:38.250Z,95052.81
2023-03-14T04:56:09.990Z,95054.09
2023-03-14T04:58:39.286Z,95041.94
2023-03-14T05:01:07.677Z,95048.06
2023-03-14T05:03:58.749Z,95040.81
2023-03-14T05:07:04.322Z,95031.13
2023-03-14T05:09:57.369Z,95036.91
2023-03-14T05:12:54.840Z,95047.16
2023-03-14T05:15:40.434Z,95039.16
2023-03-14T05:18:33.752Z,95040.00
2023-03-14T05:21:10.959Z,95039.31
2023-03-14T05:24:06.301Z,94978.22
2023-03-14T05:26:50.707Z,95029.56
2023-03-14T05:29:29.853Z,95036.78
2023-03-14T05:32:07.593Z,95028.69
2023-03-14T05:34:53.066Z,95034.47
2023-03-14T05:37:38.910Z,95035.97
2023-03-14T05:40:24.502Z,95036.44
2023-03-14T05:43:01.509Z,95036.25
2023-03-14T05:45:51.522Z,95037.72
2023-03-14T05:48:41.631Z,95039.56
2023-03-14T05:51:27.486Z,95031.44
2023-03-14T05:53:57.212Z,95038.97
2023-03-14T05:56:42.931Z,95050.41
2023-03-14T05:59:16.761Z,95048.81
2023-03-14T06:02:04.245Z,95020.78
2023-03-14T06:04:41.653Z,95030.75
2023-03-14T06:07:09.119Z,95040.75
2023-03-14T06:09:36.236Z,95041.75
2023-03-14T06:12:04.220Z,95031.19
2023-03-14T06:14:36.985Z,95024.69
2023-03-14T06:17:04.031Z,95035.06
2023-03-14T06:19:37.577Z,95019.41
2023-03-14T06:22:04.585Z,95034.88
2023-03-14T06:24:34.240Z,95040.97
2023-03-14T06:27:03.551Z,95015.22
2023-03-14T06:29:31.103Z,95044.88
2023-03-14T06:31:58.122Z,95022.53
2023-03-14T06:34:24.986Z,95044.28
2023-03-14T06:36:51.968Z,95028.63
2023-03-14T06:39:19.052Z,95027.59
2023-03-14T06:41:50.395Z,95036.13
2023-03-14T06:44:18.360Z,95018.66
2023-03-14T06:46:45.368Z,95016.38
2023-03-14T06:49:12.826Z,95026.09
2023-03-14T06:51:39.974Z,95010.63
2023-03-14T06:54:09.330Z,95013.00
2023-03-14T06:56:36.648Z,95018.72
2023-03-14T06:59:03.752Z,94998.16
2023-03-14T07:01:36.301Z,94991.66
2023-03-14T07:04:11.084Z,95005.38
2023-03-14T07:06:45.295Z,94992.81
2023-03-14T07:09:13.447Z,95005.75
2023-03-14T07:11:45.322Z,94991.50
2023-03-14T07:14:12.243Z,94985.81
2023-03-14T07:16:39.599Z,94987.19
2023-03-14T07:19:08.291Z,94983.50
2023-03-14T07:21:35.855Z,94985.75
2023-03-14T07:24:07.947Z,94979.72
2023-03-14T07:26:35.194Z,94966.03
2023-03-14T07:29:04.333Z,94983.88
2023-03-14T07:31:32.673Z,94988.28
2023-03-14T07:34:00.218Z,94987.59
2023-03-14T07:36:31.773Z,94973.69
2023-03-14T07:38:59.480Z,94976.91
2023-03-14T07:41:34.171Z,94958.22
2023-03-14T07:44:33.136Z,94967.47
2023-03-14T07:47:00.330Z,94960.22
2023-03-14T07:49:27.321Z,94956.34
2023-03-14T07:51:54.395Z,94962.66
2023-03-14T07:54:21.402Z,94965.00
2023-03-14T07:56:49.460Z,94962.47
2023-03-14T07:59:16.519Z,94956.06
2023-03-14T08:01:43.979Z,94953.28
2023-03-14T08:04:11.408Z,94961.78
2023-03-14T08:06:38.701Z,94958.72
2023-03-14T08:09:05.730Z,94959.56
2023-03-14T08:11:32.662Z,94962.00
2023-03-14T08:13:59.684Z,94949.56
2023-03-14T08:16:26.767Z,94947.22
2023-03-14T08:18:53.752Z,94958.56
2023-03-14T08:21:20.630Z,94955.09
2023-03-14T08:23:47.714Z,94959.78
2023-03-14T08:26:14.578Z,94942.06
2023-03-14T08:28:41.566Z,94945.13
2023-03-14T08:31:08.584Z,94940.69
2023-03-14T08:33:35.685Z,94927.47
2023-03-14T08:36:02.890Z,94924.19
2023-03-14T08:38:30.164Z,94929.75
2023-03-14T08:41:00.950Z,94929.31
2023-03-14T08:43:29.802Z,94936.03
2023-03-14T08:46:01.124Z,94930.41
2023-03-14T08:48:28.469Z,94917.13
2023-03-14T08:50:55.357Z,94916.19
2023-03-14T08:53:23.540Z,94918.59
2023-03-14T08:55:55.449Z,94907.28
2023-03-14T08:58:24.772Z,94898.00
2023-03-14T09:00:51.763Z,94900.75
2023-03-14T09:03:18.881Z,94886.47
2023-03-14T09:05:45.983Z,94884.41
2023-03-14T09:08:13.110Z,94874.84
2023-03-14T09:10:40.099Z,94871.25
2023-03-14T09:13:07.025Z,94864.88
2023-03-14T09:15:34.144Z,94870.84
2023-03-14T09:18:01.184Z,94848.91
2023-03-14T09:20:28.611Z,94859.84
2023-03-14T09:22:55.632Z,94860.38
2023-03-14T09:25:22.691Z,94832.25
2023-03-14T09:27:49.538Z,94844.63
2023-03-14T09:30:16.527Z,94832.38
2023-03-14T09:32:43.444Z,94828.56
2023-03-14T09:35:10.945Z,94821.22
2023-03-14T09:37:38.056Z,94829.88
2023-03-14T09:40:11.301Z,94815.41
2023-03-14T09:42:40.418Z,94815.31
2023-03-14T09:45:14.021Z,94816.91
2023-03-14T09:47:52.628Z,94789.47
2023-03-14T09:50:26.818Z,94792.38
2023-03-14T09:53:00.599Z,94777.19
2023-03-14T09:55:27.770Z,94784.22
2023-03-14T09:58:03.212Z,94789.72
2023-03-14T10:00:32.808Z,94765.16
2023-03-14T10:03:15.156Z,94779.72
2023-03-14T10:05:43.020Z,94765.38
2023-03-14T10:08:14.583Z,94767.81
2023-03-14T10:10:42.044Z,94771.88
2023-03-14T10:13:27.156Z,94758.28
2023-03-14T10:15:54.232Z,94757.00
2023-03-14T10:18:23.493Z,94737.19
2023-03-14T10:21:01.872Z,94747.84
2023-03-14T10:23:31.425Z,94733.34
2023-03-14T10:26:14.989Z,94731.00
2023-03-14T10:28:48.236Z,94701.84
2023-03-14T10:31:16.453Z,94714.19
2023-03-14T10:33:43.664Z,94716.59
2023-03-14T10:36:24.688Z,94701.66
2023-03-14T10:38:58.989Z,94697.09
2023-03-14T10:41:34.551Z,94682.31
2023-03-14T10:44:03.076Z,94674.78
2023-03-14T10:46:33.390Z,94670.75
2023-03-14T10:49:31.628Z,94651.16
2023-03-14T10:52:31.330Z,94639.59
2023-03-14T10:55:12.007Z,94652.13
2023-03-14T10:57:41.524Z,94646.28
2023-03-14T11:00:19.643Z,94634.69
2023-03-14T11:03:05.229Z,94641.56
2023-03-14T11:05:34.988Z,94629.69
2023-03-14T11:08:26.142Z,94614.91
2023-03-14T11:10:59.692Z,94623.72
2023-03-14T11:13:36.883Z,94604.88
2023-03-14T11:16:06.940Z,94598.00
2023-03-14T11:18:52.366Z,94600.06
2023-03-14T11:21:38.802Z,94572.97
2023-03-14T11:24:43.519Z,94573.94
2023-03-14T11:27:23.067Z,94565.38
2023-03-14T11:30:05.983Z,94558.16
2023-03-14T11:32:38.215Z,94539.88
2023-03-14T11:35:17.796Z,94547.47
2023-03-14T11:37:52.934Z,94539.84
2023-03-14T11:40:23.184Z,94539.03
2023-03-14T11:43:21.296Z,94535.06
2023-03-14T11:45:51.509Z,94531.34
2023-03-14T11:48:55.797Z,94507.06
2023-03-14T11:51:40.312Z,94502.59
2023-03-14T11:54:36.480Z,94514.41
2023-03-14T11:57:13.645Z,94489.06
2023-03-14T12:00:15.156Z,94499.75
2023-03-14T12:02:49.813Z,94497.66
2023-03-14T12:05:58.527Z,94469.38
2023-03-14T12:08:46.061Z,94479.16
2023-03-14T12:11:37.958Z,94472.94
2023-03-14T12:14:23.633Z,94467.97
2023-03-14T12:16:58.205Z,94457.38
2023-03-14T12:19:25.299Z,94452.38
2023-03-14T12:21:59.843Z,94441.22
2023-03-14T12:24:32.969Z,94412.78
2023-03-14T12:27:04.032Z,94436.69
2023-03-14T12:29:32.218Z,94434.34
2023-03-14T12:32:02.011Z,94440.81
2023-03-14T12:34:31.905Z,94423.91
2023-03-14T12:37:07.851Z,94426.72
2023-03-14T12:39:46.847Z,94424.69
2023-03-14T12:42:44.430Z,94426.03
2023-03-14T12:45:26.941Z,94405.59
2023-03-14T12:47:57.029Z,94412.72
2023-03-14T12:50:43.676Z,94408.41
2023-03-14T12:53:21.605Z,94387.09
2023-03-14T12:56:18.085Z,94373.78
2023-03-14T12:59:23.138Z,94389.97
2023-03-14T13:02:08.671Z,94382.63
2023-03-14T13:04:45.661Z,94352.97
2023-03-14T13:07:34.409Z,94349.41
2023-03-14T13:12:49.377Z,94312.91
2023-03-14T13:15:20.993Z,94362.44
2023-03-14T13:17:49.735Z,94357.28
2023-03-14T13:20:30.505Z,94355.97
2023-03-14T13:22:57.675Z,94341.47
2023-03-14T13:25:24.976Z,94336.66
2023-03-14T13:27:56.592Z,94328.38
2023-03-14T13:30:29.801Z,94324.75
2023-03-14T13:32:57.760Z,94312.38
2023-03-14T13:35:28.661Z,94320.28
2023-03-14T13:38:17.861Z,94296.72
2023-03-14T13:40:46.270Z,94303.34
2023-03-14T13:43:16.767Z,94294.91
2023-03-14T13:45:51.385Z,94278.59
2023-03-14T13:48:19.549Z,94290.47
2023-03-14T13:50:57.341Z,94281.88
2023-03-14T13:53:25.489Z,94276.19
2023-03-14T13:55:53.546Z,94274.69
2023-03-14T13:58:22.607Z,94275.22
2023-03-14T14:01:15.849Z,94264.44
2023-03-14T14:03:46.051Z,94254.56
2023-03-14T14:06:39.053Z,94252.00
2023-03-14T14:09:20.146Z,94256.94
2023-03-14T14:12:15.067Z,94244.53
2023-03-14T14:14:46.146Z,94241.72
2023-03-14T14:17:17.733Z,94234.72
2023-03-14T14:19:45.739Z,94226.25
2023-03-14T14:22:13.407Z,94221.34
2023-03-14T14:24:41.785Z,94216.41
2023-03-14T14:27:16.286Z,94212.31
2023-03-14T14:29:44.387Z,94206.13
2023-03-14T14:32:16.548Z,94190.25
2023-03-14T14:34:56.933Z,94200.13
2023-03-14T14:37:28.034Z,94199.34
2023-03-14T14:39:58.515Z,94187.84
2023-03-14T14:42:29.278Z,94194.53
2023-03-14T14:44:58.984Z,94186.16
2023-03-14T14:47:28.759Z,94186.94
2023-03-14T14:50:00.010Z,94165.44
2023-03-14T14:52:47.356Z,94169.72
2023-03-14T14:55:19.616Z,94156.81
2023-03-14T14:57:55.158Z,94167.47
2023-03-14T15:00:27.768Z,94171.69
2023-03-14T15:02:59.552Z,94166.44
2023-03-14T15:05:31.369Z,94169.63
2023-03-14T15:07:58.769Z,94155.81
2023-03-14T15:10:26.810Z,94158.72
2023-03-14T15:12:54.348Z,94153.44
2023-03-14T15:15:21.730Z,94133.91
2023-03-14T15:17:48.776Z,94135.63
2023-03-14T15:20:19.054Z,94148.59
2023-03-14T15:22:47.552Z,94147.88
2023-03-14T15:25:36.883Z,94149.09
2023-03-14T15:28:01.762Z,94132.53
2023-03-14T15:30:28.733Z,94144.00
2023-03-14T15:32:55.764Z,94132.38
2023-03-14T15:35:22.756Z,94133.84
2023-03-14T15:37:50.005Z,94126.56
2023-03-14T15:40:17.174Z,94136.41
2023-03-14T15:42:44.176Z,94095.16
2023-03-14T15:45:11.536Z,94129.56
2023-03-14T15:47:38.616Z,94132.88
2023-03-14T15:50:06.032Z,94126.09
2023-03-14T15:52:33.237Z,94076.88
2023-03-14T15:55:01.130Z,94118.19
2023-03-14T15:57:28.093Z,94113.78
2023-03-14T15:59:55.952Z,94130.78
2023-03-14T16:02:22.977Z,94111.69
2023-03-14T16:04:49.964Z,94126.09
2023-03-14T16:07:17.492Z,94122.50
2023-03-14T16:09:44.421Z,94123.56
2023-03-14T16:12:11.303Z,94122.03
2023-03-14T16:14:43.583Z,94120.63
2023-03-14T16:17:11.947Z,94113.56
2023-03-14T16:19:38.849Z,94132.13
2023-03-14T16:22:06.035Z,94130.38
2023-03-14T16:24:33.228Z,94140.91
2023-03-14T16:27:00.360Z,94138.88
2023-03-14T16:29:27.402Z,94140.66
2023-03-14T16:31:54.411Z,94119.63
2023-03-14T16:34:21.507Z,94146.09
2023-03-14T16:36:48.492Z,94138.69
2023-03-14T16:39:15.813Z,94141.69
2023-03-14T16:41:42.832Z,94153.72
2023-03-14T16:44:09.737Z,94138.81
2023-03-14T16:46:37.743Z,94128.47
2023-03-14T16:49:05.544Z,94155.69
2023-03-14T16:51:32.709Z,94146.06
2023-03-14T16:53:59.832Z,94151.44
2023-03-14T16:56:27.001Z,94128.22
2023-03-14T16:58:53.971Z,94148.25
2023-03-14T17:01:21.447Z,94149.88
2023-03-14T17:03:50.375Z,94137.88
2023-03-14T17:06:26.118Z,94126.94
2023-03-14T17:08:55.186Z,94152.31
2023-03-14T17:11:24.045Z,94150.16
2023-03-14T17:13:51.276Z,94136.81
2023-03-14T17:16:19.790Z,94148.81
2023-03-14T17:18:47.159Z,94144.28
2023-03-14T17:21:14.205Z,94148.28
2023-03-14T17:23:41.620Z,94153.34
2023-03-14T17:26:10.282Z,94160.78
2023-03-14T17:28:37.399Z,94149.03
2023-03-14T17:31:06.590Z,94144.44
2023-03-14T17:33:34.251Z,94157.22
2023-03-14T17:36:01.491Z,94148.66
2023-03-14T17:38:28.790Z,94147.31
2023-03-14T17:40:55.859Z,94140.88
2023-03-14T17:43:23.382Z,94149.63
2023-03-14T17:45:58.058Z,94127.75
2023-03-14T17:48:25.223Z,94128.25
2023-03-14T17:50:52.970Z,94154.88
2023-03-14T17:53:20.575Z,94145.28
2023-03-14T17:55:49.677Z,94145.22
2023-03-14T17:58:16.931Z,94145.16
2023-03-14T18:00:44.169Z,94144.88
2023-03-14T18:03:11.950Z,94147.25
2023-03-14T18:05:42.100Z,94158.47
2023-03-14T18:08:13.382Z,94155.50
2023-03-14T18:10:40.640Z,94163.19
2023-03-14T18:13:07.838Z,94153.03
2023-03-14T18:15:34.823Z,94139.13
2023-03-14T18:18:02.172Z,94155.34
2023-03-14T18:20:30.336Z,94161.22
2023-03-14T18:22:57.525Z,94148.91
2023-03-14T18:25:24.504Z,94153.13
2023-03-14T18:27:51.509Z,94158.44
2023-03-14T18:30:20.475Z,94163.75
2023-03-14T18:32:47.538Z,94146.88
2023-03-14T18:35:14.658Z,94162.34
2023-03-14T18:37:42.066Z,94163.91
2023-03-14T18:40:13.710Z,94153.25
2023-03-14T18:42:41.308Z,94148.97
2023-03-14T18:45:09.181Z,94126.69
2023-03-14T18:47:36.871Z,94154.47
2023-03-14T18:50:06.359Z,94167.28
2023-03-14T18:52:33.633Z,94149.81
2023-03-14T18:55:00.564Z,94162.63
2023-03-14T18:57:27.815Z,94165.53
2023-03-14T18:59:56.723Z,94148.47
2023-03-14T19:02:25.462Z,94156.69
2023-03-14T19:04:53.365Z,94160.38
2023-03-14T19:07:23.856Z,94155.88
2023-03-14T19:09:51.926Z,94156.91
2023-03-14T19:12:19.152Z,94137.88
2023-03-14T19:14:46.467Z,94147.97
2023-03-14T19:17:13.753Z,94141.25
2023-03-14T19:19:40.648Z,94151.94
2023-03-14T19:22:07.804Z,94150.63
2023-03-14T19:24:35.235Z,94152.69
2023-03-14T19:27:02.401Z,94156.41
2023-03-14T19:29:29.295Z,94154.47
2023-03-14T19:31:56.978Z,94153.16
2023-03-14T19:34:24.004Z,94160.31
2023-03-14T19:36:51.088Z,94159.22
2023-03-14T19:39:19.079Z,94161.53
2023-03-14T19:41:46.122Z,94173.06
2023-03-14T19:44:13.553Z,94170.00
2023-03-14T19:46:41.735Z,94166.03
2023-03-14T19:49:08.783Z,94141.88
2023-03-14T19:51:35.854Z,94110.75
2023-03-14T19:54:05.004Z,94163.44
2023-03-14T19:56:33.272Z,94155.22
2023-03-14T19:59:03.202Z,94130.50
2023-03-14T20:01:31.715Z,94099.63
2023-03-14T20:03:58.683Z,94146.19
2023-03-14T20:06:25.818Z,94142.97
2023-03-14T20:08:52.744Z,94161.63
2023-03-14T20:11:20.124Z,94151.97
2023-03-14T20:13:47.481Z,94135.44
2023-03-14T20:16:36.014Z,94134.31
2023-03-14T20:19:42.050Z,94134.16
2023-03-14T20:22:09.211Z,94135.19
2023-03-14T20:24:36.136Z,94137.66
2023-03-14T20:27:03.164Z,94134.44
2023-03-14T20:29:30.075Z,94139.81
2023-03-14T20:31:57.116Z,94121.69
2023-03-14T20:34:24.067Z,94110.44
2023-03-14T20:36:53.147Z,94080.75
2023-03-14T20:39:20.219Z,94126.31
2023-03-14T20:41:47.142Z,94130.34
2023-03-14T20:44:14.444Z,94124.53
2023-03-14T20:46:41.497Z,94112.31
2023-03-14T20:49:08.388Z,94108.47
2023-03-14T20:51:35.801Z,94125.34
2023-03-14T20:54:02.933Z,94125.56
2023-03-14T20:56:29.874Z,94118.75
2023-03-14T20:58:57.272Z,94115.00
2023-03-14T21:01:24.487Z,94113.16
2023-03-14T21:19:41.139Z,94109.47
2023-03-14T21:22:08.346Z,94110.81
2023-03-14T21:24:35.412Z,94100.06
2023-03-14T21:27:02.544Z,94090.06
2023-03-14T21:29:29.661Z,94038.22
2023-03-14T21:31:56.739Z,94099.06
2023-03-14T21:34:27.013Z,94089.50
2023-03-14T21:36:55.651Z,94097.56
2023-03-14T21:39:22.967Z,94107.38
2023-03-14T21:41:49.935Z,94111.34
2023-03-14T21:44:19.088Z,94106.53
2023-03-14T21:46:46.591Z,94081.47
2023-03-14T21:49:15.058Z,94110.22
2023-03-14T21:51:45.887Z,94065.28
2023-03-14T21:54:17.058Z,94103.00
2023-03-14T21:56:46.328Z,94089.34
2023-03-14T21:59:14.494Z,94096.59
2023-03-14T22:01:42.284Z,94089.59
2023-03-14T22:04:09.407Z,94098.34
2023-03-14T22:06:36.508Z,94084.84
2023-03-14T22:09:03.605Z,94087.50
2023-03-14T22:11:30.543Z,94085.34
2023-03-14T22:13:57.574Z,94079.22
2023-03-14T22:16:24.587Z,94074.41
2023-03-14T22:18:51.428Z,94066.63
2023-03-14T22:21:18.493Z,94062.13
2023-03-14T22:23:45.361Z,94053.53
2023-03-14T22:26:12.303Z,94043.50
2023-03-14T22:28:39.873Z,94041.88
2023-03-14T22:31:06.845Z,94054.25
2023-03-14T22:33:33.875Z,94039.06
2023-03-14T22:36:00.861Z,94047.09
2023-03-14T22:38:27.904Z,94042.81
2023-03-14T22:41:01.275Z,94037.28
2023-03-14T22:43:29.998Z,94037.59
2023-03-14T22:46:04.693Z,94034.16
2023-03-14T22:48:32.762Z,94033.41
2023-03-14T22:51:00.397Z,94032.28
2023-03-14T22:53:27.281Z,94030.19
2023-03-14T22:56:02.709Z,94028.91
2023-03-14T22:58:29.953Z,94016.13
2023-03-14T23:00:56.985Z,94024.66
2023-03-14T23:03:23.961Z,94021.53
2023-03-14T23:05:50.945Z,93993.69
2023-03-14T23:08:17.905Z,94021.13
2023-03-14T23:10:45.304Z,94036.00
2023-03-14T23:13:15.489Z,94024.25
2023-03-14T23:15:44.498Z,94019.22
2023-03-14T23:18:13.904Z,94010.94
2023-03-14T23:20:43.248Z,94011.44
2023-03-14T23:23:13.745Z,94015.63
2023-03-14T23:25:52.935Z,94015.50
2023-03-14T23:28:23.101Z,94006.28
2023-03-14T23:30:55.562Z,94014.31
2023-03-14T23:33:24.291Z,94018.25
2023-03-14T23:35:51.636Z,94017.34
2023-03-14T23:38:18.561Z,94021.03
2023-03-14T23:40:45.450Z,94021.03
2023-03-14T23:43:12.574Z,94006.63
2023-03-14T23:45:39.564Z,94021.22
2023-03-14T23:48:06.686Z,94021.72
2023-03-14T23:50:36.734Z,93999.00
2023-03-14T23:53:04.001Z,94019.88
2023-03-14T23:55:30.994Z,94023.31
2023-03-14T23:57:57.906Z,94002.22
